createdAt,value
2018-12-10T00:36:21.135Z,23.40
2018-12-10T00:38:47.365Z,22.60
2018-12-10T00:41:13.583Z,18.97
2018-12-10T00:43:39.809Z,25.57
2018-12-10T00:48:34.254Z,24.17
2018-12-10T00:51:00.951Z,24.83
2018-12-10T00:53:28.806Z,23.57
2018-12-10T00:55:55.445Z,27.60
2018-12-10T00:58:23.667Z,26.63
2018-12-10T01:00:50.376Z,32.43
2018-12-10T01:03:17.372Z,31.00
2018-12-10T01:05:44.254Z,25.10
2018-12-10T01:08:11.944Z,27.03
2018-12-10T01:10:38.897Z,29.33
2018-12-10T01:13:05.623Z,26.63
2018-12-10T01:15:32.614Z,32.43
2018-12-10T01:17:59.259Z,29.80
2018-12-10T01:20:26.352Z,35.83
2018-12-10T01:22:53.321Z,28.63
2018-12-10T01:25:19.963Z,25.60
2018-12-10T01:27:47.027Z,21.90
2018-12-10T01:30:13.714Z,23.80
2018-12-10T01:32:40.362Z,21.40
2018-12-10T01:35:07.361Z,18.10
2018-12-10T01:37:34.034Z,19.50
2018-12-10T01:40:00.663Z,17.87
2018-12-10T01:42:27.345Z,15.13
2018-12-10T01:44:54.296Z,13.37
2018-12-10T01:47:20.933Z,18.10
2018-12-10T01:49:48.013Z,16.33
2018-12-10T01:52:14.652Z,11.50
2018-12-10T01:54:41.304Z,12.17
2018-12-10T01:57:08.380Z,15.13
2018-12-10T01:59:35.356Z,13.60
2018-12-10T02:02:01.987Z,15.63
2018-12-10T02:04:28.869Z,13.17
2018-12-10T02:06:55.658Z,8.77
2018-12-10T02:09:22.296Z,12.40
2018-12-10T02:11:48.980Z,11.90
2018-12-10T02:14:15.621Z,14.40
2018-12-10T02:16:42.263Z,13.53
2018-12-10T02:19:10.569Z,13.07
2018-12-10T02:21:37.214Z,12.70
2018-12-10T02:24:04.179Z,19.43
2018-12-10T02:26:32.312Z,19.53
2018-12-10T02:29:04.770Z,14.70
2018-12-10T02:31:32.723Z,14.67
2018-12-10T02:33:59.370Z,12.27
2018-12-10T02:36:26.048Z,13.90
2018-12-10T02:38:52.918Z,11.00
2018-12-10T02:41:19.670Z,10.20
2018-12-10T02:43:46.312Z,9.53
2018-12-10T02:46:13.284Z,10.30
2018-12-10T02:48:39.982Z,13.67
2018-12-10T02:51:06.621Z,12.97
2018-12-10T02:53:34.555Z,11.20
2018-12-10T02:56:01.378Z,14.70
2018-12-10T02:58:28.591Z,12.80
2018-12-10T03:00:55.506Z,13.23
2018-12-10T03:03:22.280Z,12.43
2018-12-10T03:05:48.923Z,13.23
2018-12-10T03:08:16.801Z,13.57
2018-12-10T03:10:43.437Z,12.37
2018-12-10T03:13:11.426Z,12.20
2018-12-10T03:15:39.481Z,11.87
2018-12-10T03:18:07.442Z,14.93
2018-12-10T03:20:35.703Z,14.03
2018-12-10T03:23:02.595Z,17.93
2018-12-10T03:25:29.369Z,13.40
2018-12-10T03:27:56.070Z,16.40
2018-12-10T03:30:23.960Z,17.10
2018-12-10T03:32:51.741Z,19.40
2018-12-10T03:35:19.663Z,15.43
2018-12-10T03:37:46.369Z,17.67
2018-12-10T03:40:13.416Z,14.67
2018-12-10T03:42:40.483Z,11.47
2018-12-10T03:45:07.907Z,12.93
2018-12-10T03:47:34.543Z,14.40
2018-12-10T03:50:01.496Z,11.43
2018-12-10T03:52:28.646Z,13.53
2018-12-10T03:54:55.635Z,9.60
2018-12-10T03:57:22.276Z,8.03
2018-12-10T03:59:48.955Z,8.47
2018-12-10T04:02:15.608Z,9.07
2018-12-10T04:04:42.546Z,9.33
2018-12-10T04:07:10.106Z,15.13
2018-12-10T04:09:37.075Z,12.87
2018-12-10T04:12:03.730Z,12.87
2018-12-10T04:14:30.418Z,13.87
2018-12-10T04:16:57.069Z,14.63
2018-12-10T04:19:24.044Z,12.33
2018-12-10T04:21:50.733Z,12.37
2018-12-10T04:24:17.486Z,11.93
2018-12-10T04:26:44.345Z,13.53
2018-12-10T04:29:11.483Z,14.73
2018-12-10T04:31:38.447Z,14.43
2018-12-10T04:34:05.083Z,17.23
2018-12-10T04:36:31.793Z,18.97
2018-12-10T04:38:58.434Z,16.83
2018-12-10T04:41:25.483Z,16.80
2018-12-10T04:43:52.529Z,17.77
2018-12-10T04:46:19.179Z,17.57
2018-12-10T04:48:46.145Z,17.47
2018-12-10T04:51:12.816Z,14.37
2018-12-10T04:53:39.464Z,15.73
2018-12-10T04:56:06.111Z,22.27
2018-12-10T04:58:33.185Z,20.37
2018-12-10T05:01:00.158Z,18.23
2018-12-10T05:03:26.797Z,18.40
2018-12-10T05:05:53.464Z,22.13
2018-12-10T05:08:20.508Z,21.03
2018-12-10T05:10:47.518Z,24.43
2018-12-10T05:13:14.466Z,19.83
2018-12-10T05:15:41.208Z,24.87
2018-12-10T05:18:07.832Z,23.20
2018-12-10T05:20:35.789Z,18.20
2018-12-10T05:23:02.418Z,22.63
2018-12-10T05:25:29.056Z,20.10
2018-12-10T05:27:55.745Z,17.17
2018-12-10T05:30:22.689Z,19.60
2018-12-10T05:32:49.324Z,16.80
2018-12-10T05:35:16.032Z,15.37
2018-12-10T05:37:43.819Z,14.43
2018-12-10T05:40:11.680Z,14.07
2018-12-10T05:42:38.419Z,13.60
2018-12-10T05:45:06.048Z,12.87
2018-12-10T05:47:32.691Z,17.07
2018-12-10T05:49:59.493Z,13.30
2018-12-10T05:52:26.132Z,12.70
2018-12-10T05:54:52.781Z,13.03
2018-12-10T05:57:19.461Z,14.57
2018-12-10T05:59:46.453Z,16.63
2018-12-10T06:02:13.080Z,16.30
2018-12-10T06:04:39.782Z,17.47
2018-12-10T06:07:06.420Z,19.60
2018-12-10T06:09:33.403Z,16.57
2018-12-10T06:12:00.100Z,10.43
2018-12-10T06:14:26.745Z,7.47
2018-12-10T06:16:53.365Z,8.37
2018-12-10T06:19:20.048Z,8.60
2018-12-10T06:21:47.002Z,9.13
2018-12-10T06:24:13.635Z,8.37
2018-12-10T06:26:41.544Z,9.23
2018-12-10T06:29:08.531Z,7.40
2018-12-10T06:31:35.227Z,12.17
2018-12-10T06:34:01.929Z,8.33
2018-12-10T06:36:28.886Z,6.13
2018-12-10T06:38:55.516Z,6.10
2018-12-10T06:41:22.376Z,4.63
2018-12-10T06:43:49.192Z,7.93
2018-12-10T06:46:15.852Z,6.93
2018-12-10T06:48:43.748Z,8.80
2018-12-10T06:51:10.525Z,10.63
2018-12-10T06:53:37.410Z,4.67
2018-12-10T06:56:04.088Z,7.63
2018-12-10T06:58:31.880Z,7.50
2018-12-10T07:01:00.023Z,8.93
2018-12-10T07:03:27.712Z,6.17
2018-12-10T07:05:54.665Z,10.93
2018-12-10T07:08:21.295Z,8.47
2018-12-10T07:10:48.022Z,6.57
2018-12-10T07:13:14.658Z,6.43
2018-12-10T07:15:42.456Z,4.87
2018-12-10T07:18:10.383Z,5.03
2018-12-10T07:27:27.555Z,4.80
2018-12-10T07:29:54.441Z,3.40
2018-12-10T07:32:22.286Z,2.60
2018-12-10T07:34:50.236Z,4.50
2018-12-10T07:37:17.199Z,5.37
2018-12-10T07:39:43.885Z,5.83
2018-12-10T07:42:10.561Z,5.23
2018-12-10T07:44:37.533Z,4.37
2018-12-10T07:47:04.164Z,4.30
2018-12-10T07:49:30.869Z,5.90
2018-12-10T07:51:57.497Z,7.20
2018-12-10T07:54:24.132Z,4.63
2018-12-10T07:56:51.184Z,7.10
2018-12-10T07:59:18.997Z,9.73
2018-12-10T08:01:46.040Z,7.63
2018-12-10T08:04:13.190Z,8.30
2018-12-10T08:06:40.148Z,7.80
2018-12-10T08:09:06.806Z,6.03
2018-12-10T08:11:33.999Z,5.97
2018-12-10T08:14:00.901Z,5.43
2018-12-10T08:16:27.546Z,4.20
2018-12-10T08:18:54.339Z,6.70
2018-12-10T08:21:21.215Z,10.70
2018-12-10T08:23:47.887Z,9.40
2018-12-10T08:26:14.625Z,14.20
2018-12-10T08:28:41.513Z,8.17
2018-12-10T08:31:08.579Z,11.17
2018-12-10T08:33:35.460Z,11.67
2018-12-10T08:36:02.271Z,9.30
2018-12-10T08:38:28.961Z,10.87
2018-12-10T08:40:56.023Z,11.23
2018-12-10T08:43:22.674Z,14.63
2018-12-10T08:45:49.656Z,14.73
2018-12-10T08:48:16.766Z,20.03
2018-12-10T08:50:43.712Z,16.03
2018-12-10T08:53:10.393Z,13.80
2018-12-10T08:55:37.069Z,18.23
2018-12-10T08:58:03.706Z,20.60
2018-12-10T09:00:30.337Z,20.33
2018-12-10T09:02:57.015Z,17.87
2018-12-10T09:05:23.642Z,19.30
2018-12-10T09:07:50.286Z,26.80
2018-12-10T09:10:17.308Z,23.30
2018-12-10T09:12:47.155Z,20.37
2018-12-10T09:15:12.648Z,21.67
2018-12-10T09:17:39.332Z,15.77
2018-12-10T09:20:05.985Z,21.20
2018-12-10T09:22:32.633Z,24.37
2018-12-10T09:24:59.324Z,15.00
2018-12-10T09:27:25.958Z,16.77
2018-12-10T09:29:52.606Z,26.67
2018-12-10T09:32:20.727Z,22.43
2018-12-10T09:34:47.384Z,22.90
2018-12-10T09:37:14.028Z,22.30
2018-12-10T09:39:41.070Z,24.83
2018-12-10T09:42:07.708Z,21.37
2018-12-10T09:44:34.351Z,19.80
2018-12-10T09:47:01.046Z,22.10
2018-12-10T09:49:27.709Z,24.83
2018-12-10T09:51:54.380Z,24.43
2018-12-10T09:54:21.319Z,23.73
2018-12-10T09:56:47.948Z,24.83
2018-12-10T09:59:14.582Z,27.23
2018-12-10T10:01:41.305Z,20.33
2018-12-10T10:04:07.967Z,24.03
2018-12-10T10:06:34.657Z,25.33
2018-12-10T10:09:02.023Z,25.63
2018-12-10T10:11:28.684Z,23.13
2018-12-10T10:13:55.318Z,20.60
2018-12-10T10:16:22.000Z,24.23
2018-12-10T10:18:48.644Z,20.37
2018-12-10T10:21:15.298Z,31.93
2018-12-10T10:23:42.287Z,19.00
2018-12-10T10:26:08.931Z,20.93
2018-12-10T10:28:35.585Z,23.87
2018-12-10T10:31:02.318Z,20.77
2018-12-10T10:33:32.445Z,22.50
2018-12-10T10:35:57.654Z,21.00
2018-12-10T10:38:24.481Z,23.13
2018-12-10T10:40:51.170Z,28.30
2018-12-10T10:43:17.805Z,20.17
2018-12-10T10:45:44.702Z,21.50
2018-12-10T10:48:11.345Z,21.87
2018-12-10T10:50:38.015Z,24.60
2018-12-10T10:53:05.165Z,27.27
2018-12-10T10:55:31.821Z,22.93
2018-12-10T10:57:58.460Z,20.80
2018-12-10T11:00:30.825Z,21.27
2018-12-10T11:03:12.020Z,29.73
2018-12-10T11:05:39.321Z,15.40
2018-12-10T11:08:05.991Z,24.03
2018-12-10T11:10:32.632Z,23.97
2018-12-10T11:12:59.333Z,22.13
2018-12-10T11:15:25.992Z,20.40
2018-12-10T11:17:52.634Z,33.60
2018-12-10T11:20:19.322Z,15.47
2018-12-10T11:22:46.002Z,22.80
2018-12-10T11:25:12.665Z,23.60
2018-12-10T11:27:39.358Z,29.73
2018-12-10T11:30:06.037Z,26.57
2018-12-10T11:32:32.726Z,20.97
2018-12-10T11:35:00.060Z,27.93
2018-12-10T11:37:26.697Z,22.23
2018-12-10T11:39:53.358Z,23.20
2018-12-10T11:42:20.035Z,23.60
2018-12-10T11:44:46.693Z,29.97
2018-12-10T11:47:13.449Z,23.07
2018-12-10T11:49:40.270Z,29.00
2018-12-10T11:52:06.916Z,22.63
2018-12-10T11:54:34.787Z,23.50
2018-12-10T11:57:02.705Z,27.77
2018-12-10T11:59:29.677Z,28.30
2018-12-10T12:01:56.747Z,24.50
2018-12-10T12:04:23.415Z,29.50
2018-12-10T12:06:50.074Z,21.80
2018-12-10T12:09:17.061Z,22.07
2018-12-10T12:11:43.780Z,28.10
2018-12-10T12:14:10.746Z,39.17
2018-12-10T12:16:37.537Z,27.97
2018-12-10T12:19:11.200Z,29.37
2018-12-10T12:21:33.508Z,23.80
2018-12-10T12:24:01.377Z,26.67
2018-12-10T12:26:32.557Z,25.77
2018-12-10T12:29:00.387Z,29.77
2018-12-10T12:31:27.023Z,30.13
2018-12-10T12:33:53.710Z,24.50
2018-12-10T12:36:20.361Z,26.37
2018-12-10T12:38:46.995Z,27.07
2018-12-10T12:41:15.306Z,30.83
2018-12-10T12:43:42.460Z,28.07
2018-12-10T12:46:10.135Z,31.47
2018-12-10T12:48:37.022Z,22.90
2018-12-10T12:51:03.805Z,37.93
2018-12-10T12:53:30.465Z,21.97
2018-12-10T12:55:57.365Z,23.83
2018-12-10T12:58:24.165Z,31.20
2018-12-10T13:00:50.811Z,27.47
2018-12-10T13:03:17.506Z,30.37
2018-12-10T13:05:44.496Z,25.20
2018-12-10T13:08:11.182Z,17.53
2018-12-10T13:10:37.868Z,24.07
2018-12-10T13:13:04.780Z,25.77
2018-12-10T13:15:31.487Z,24.67
2018-12-10T13:17:58.164Z,22.83
2018-12-10T13:20:25.178Z,28.37
2018-12-10T13:22:51.887Z,35.33
2018-12-10T13:25:19.291Z,29.93
2018-12-10T13:27:46.276Z,26.37
2018-12-10T13:30:13.301Z,28.10
2018-12-10T13:32:39.998Z,27.47
2018-12-10T13:35:06.670Z,29.70
2018-12-10T13:37:33.636Z,29.70
2018-12-10T13:40:00.300Z,29.00
2018-12-10T13:42:26.936Z,24.90
2018-12-10T13:44:53.577Z,30.97
2018-12-10T13:47:20.272Z,25.33
2018-12-10T13:49:46.907Z,31.63
2018-12-10T13:52:13.546Z,28.27
2018-12-10T13:54:40.436Z,26.23
2018-12-10T13:57:07.136Z,37.43
2018-12-10T13:59:33.801Z,33.80
2018-12-10T14:02:00.475Z,41.47
2018-12-10T14:04:29.089Z,50.57
2018-12-10T14:06:55.729Z,39.00
2018-12-10T14:09:22.429Z,36.90
2018-12-10T14:11:49.093Z,37.10
2018-12-10T14:14:15.734Z,42.73
2018-12-10T14:16:42.423Z,34.07
2018-12-10T14:19:09.079Z,31.73
2018-12-10T14:21:35.732Z,33.30
2018-12-10T14:24:02.402Z,38.70
2018-12-10T14:26:29.042Z,29.20
2018-12-10T14:28:55.781Z,26.33
2018-12-10T14:31:27.272Z,29.67
2018-12-10T14:33:51.298Z,24.73
2018-12-10T14:36:18.276Z,27.37
2018-12-10T14:38:45.760Z,31.43
2018-12-10T14:41:12.405Z,22.50
2018-12-10T14:43:39.047Z,32.30
2018-12-10T14:46:05.824Z,35.27
2018-12-10T14:48:32.690Z,26.70
2018-12-10T14:50:59.336Z,26.10
2018-12-10T14:53:26.237Z,26.47
2018-12-10T14:55:53.014Z,32.97
2018-12-10T14:58:19.652Z,27.97
2018-12-10T15:00:46.329Z,34.17
2018-12-10T15:03:14.164Z,40.17
2018-12-10T15:05:40.801Z,49.07
2018-12-10T15:08:08.709Z,42.80
2018-12-10T15:10:35.363Z,39.77
2018-12-10T15:13:02.038Z,33.10
2018-12-10T15:15:29.482Z,38.10
2018-12-10T15:17:56.450Z,42.43
2018-12-10T15:20:23.084Z,37.60
2018-12-10T15:22:49.763Z,37.70
2018-12-10T15:25:18.023Z,40.73
2018-12-10T15:27:44.681Z,30.17
2018-12-10T15:30:11.382Z,39.93
2018-12-10T15:32:38.012Z,41.60
2018-12-10T15:35:04.965Z,43.17
2018-12-10T15:37:31.683Z,42.13
2018-12-10T15:39:58.654Z,37.53
2018-12-10T15:42:25.305Z,37.13
2018-12-10T15:44:52.003Z,36.63
2018-12-10T15:47:18.973Z,32.53
2018-12-10T15:49:45.650Z,41.57
2018-12-10T15:52:12.330Z,34.80
2018-12-10T15:54:39.302Z,37.10
2018-12-10T15:57:05.948Z,31.63
2018-12-10T15:59:32.631Z,31.37
2018-12-10T16:01:59.290Z,35.87
2018-12-10T16:04:26.243Z,34.03
2018-12-10T16:06:52.933Z,29.70
2018-12-10T16:09:19.601Z,33.37
2018-12-10T16:11:46.252Z,31.83
2018-12-10T16:14:13.244Z,26.10
2018-12-10T16:16:39.908Z,32.40
2018-12-10T16:19:06.554Z,31.97
2018-12-10T16:21:34.453Z,37.00
2018-12-10T16:24:01.412Z,34.17
2018-12-10T16:26:28.255Z,35.27
2018-12-10T16:28:55.152Z,36.97
2018-12-10T16:31:21.808Z,27.90
2018-12-10T16:33:48.781Z,42.00
2018-12-10T16:36:15.687Z,47.13
2018-12-10T16:38:42.468Z,41.03
2018-12-10T16:41:09.105Z,39.00
2018-12-10T16:43:36.277Z,45.63
2018-12-10T16:46:03.208Z,42.07
2018-12-10T16:48:29.876Z,33.83
2018-12-10T16:50:56.562Z,36.40
2018-12-10T16:53:23.525Z,40.10
2018-12-10T16:55:50.610Z,39.60
2018-12-10T16:58:17.493Z,40.30
2018-12-10T17:00:44.256Z,46.30
2018-12-10T17:03:10.969Z,48.50
2018-12-10T17:05:38.104Z,50.53
2018-12-10T17:08:05.029Z,52.13
2018-12-10T17:10:31.686Z,54.27
2018-12-10T17:13:55.700Z,47.30
2018-12-10T17:16:22.666Z,48.13
2018-12-10T17:18:49.316Z,50.40
2018-12-10T17:21:15.992Z,34.17
2018-12-10T17:23:42.662Z,49.03
2018-12-10T17:26:09.623Z,68.73
2018-12-10T17:28:36.292Z,65.43
2018-12-10T17:31:02.937Z,60.73
2018-12-10T17:33:29.588Z,63.97
2018-12-10T17:35:56.297Z,53.47
2018-12-10T17:38:23.216Z,59.13
2018-12-10T17:40:49.870Z,56.10
2018-12-10T17:43:17.002Z,53.03
2018-12-10T17:45:44.819Z,48.07
2018-12-10T17:48:11.471Z,48.93
2018-12-10T17:50:38.259Z,40.07
2018-12-10T17:53:05.142Z,52.23
2018-12-10T17:55:31.806Z,42.27
2018-12-10T17:57:58.522Z,42.67
2018-12-10T18:00:25.427Z,34.27
2018-12-10T18:02:52.063Z,36.00
2018-12-10T18:05:19.211Z,35.10
2018-12-10T18:07:46.196Z,37.03
2018-12-10T18:10:13.259Z,35.63
2018-12-10T18:12:39.981Z,32.23
2018-12-10T18:15:06.627Z,35.43
2018-12-10T18:17:33.269Z,34.33
2018-12-10T18:19:59.958Z,33.67
2018-12-10T18:22:26.815Z,37.37
2018-12-10T18:24:53.487Z,44.03
2018-12-10T18:27:20.165Z,35.00
2018-12-10T18:29:47.306Z,31.90
2018-12-10T18:32:14.191Z,31.13
2018-12-10T18:34:40.873Z,35.47
2018-12-10T18:37:07.530Z,32.60
2018-12-10T18:39:34.511Z,40.73
2018-12-10T18:42:01.197Z,38.73
2018-12-10T18:44:27.832Z,36.63
2018-12-10T18:46:54.813Z,37.17
2018-12-10T18:49:21.541Z,41.00
2018-12-10T18:51:49.021Z,42.80
2018-12-10T18:54:16.358Z,40.40
2018-12-10T18:56:43.053Z,34.93
2018-12-10T18:59:09.705Z,36.90
2018-12-10T19:01:36.344Z,42.27
2018-12-10T19:04:03.044Z,41.27
2018-12-10T19:06:29.961Z,40.03
2018-12-10T19:08:56.789Z,46.07
2018-12-10T19:11:23.865Z,44.97
2018-12-10T19:13:50.724Z,37.73
2018-12-10T19:16:17.373Z,44.03
2018-12-10T19:18:44.079Z,39.37
2018-12-10T19:21:11.033Z,43.80
2018-12-10T19:23:38.822Z,43.03
2018-12-10T19:26:05.996Z,39.40
2018-12-10T19:28:32.667Z,45.03
2018-12-10T19:30:59.635Z,39.40
2018-12-10T19:33:26.328Z,40.67
2018-12-10T19:35:52.983Z,51.00
2018-12-10T19:38:19.986Z,42.50
2018-12-10T19:40:46.672Z,47.13
2018-12-10T19:43:13.660Z,40.10
2018-12-10T19:45:41.513Z,38.20
2018-12-10T19:48:08.413Z,34.73
2018-12-10T19:50:35.201Z,31.90
2018-12-10T19:53:01.872Z,40.17
2018-12-10T19:55:28.628Z,45.57
2018-12-10T19:57:55.541Z,34.97
2018-12-10T20:00:22.186Z,46.67
2018-12-10T20:02:49.362Z,33.13
2018-12-10T20:05:16.242Z,39.33
2018-12-10T20:07:42.897Z,33.87
2018-12-10T20:10:09.661Z,43.70
2018-12-10T20:12:36.370Z,41.73
2018-12-10T20:15:04.293Z,38.83
2018-12-10T20:17:31.117Z,36.60
2018-12-10T20:19:57.796Z,37.73
2018-12-10T20:22:24.769Z,46.07
2018-12-10T20:24:51.465Z,38.23
2018-12-10T20:27:19.270Z,43.30
2018-12-10T20:29:45.944Z,40.77
2018-12-10T20:32:13.458Z,37.43
2018-12-10T20:34:40.467Z,39.17
2018-12-10T20:37:07.493Z,38.33
2018-12-10T20:39:34.213Z,35.43
2018-12-10T20:42:01.169Z,38.40
2018-12-10T20:44:28.180Z,38.13
2018-12-10T20:46:54.885Z,40.77
2018-12-10T20:49:21.546Z,37.17
2018-12-10T20:51:48.504Z,37.80
2018-12-10T20:54:15.433Z,39.33
2018-12-10T20:56:42.284Z,38.27
2018-12-10T20:59:09.281Z,41.33
2018-12-10T21:01:36.072Z,42.30
2018-12-10T21:04:02.972Z,38.47
2018-12-10T21:06:35.044Z,41.57
2018-12-10T21:09:02.950Z,44.30
2018-12-10T21:11:29.832Z,44.83
2018-12-10T21:13:56.483Z,36.20
2018-12-10T21:16:23.156Z,38.03
2018-12-10T21:18:50.230Z,40.20
2018-12-10T21:21:17.206Z,45.60
2018-12-10T21:23:43.902Z,39.50
2018-12-10T21:26:10.873Z,39.00
2018-12-10T21:28:37.542Z,35.97
2018-12-10T21:31:04.323Z,49.83
2018-12-10T21:33:31.221Z,37.67
2018-12-10T21:35:57.878Z,42.17
2018-12-10T21:38:24.739Z,50.03
2018-12-10T21:40:51.545Z,43.17
2018-12-10T21:43:18.185Z,42.57
2018-12-10T21:45:44.878Z,44.20
2018-12-10T21:48:11.845Z,45.13
2018-12-10T21:50:38.496Z,38.13
2018-12-10T21:53:05.191Z,44.57
2018-12-10T21:55:31.842Z,45.33
2018-12-10T21:57:58.817Z,39.07
2018-12-10T22:00:25.521Z,39.03
2018-12-10T22:02:52.489Z,46.03
2018-12-10T22:05:19.122Z,47.43
2018-12-10T22:07:45.816Z,37.80
2018-12-10T22:10:12.454Z,38.93
2018-12-10T22:12:39.275Z,35.67
2018-12-10T22:15:06.152Z,37.53
2018-12-10T22:17:32.811Z,43.43
2018-12-10T22:19:59.847Z,36.40
2018-12-10T22:22:26.530Z,41.33
2018-12-10T22:24:53.463Z,36.07
2018-12-10T22:27:21.343Z,34.57
2018-12-10T22:29:48.053Z,36.90
2018-12-10T22:32:15.029Z,35.53
2018-12-10T22:34:41.685Z,37.03
2018-12-10T22:37:09.603Z,33.10
2018-12-10T22:39:36.602Z,31.93
2018-12-10T22:42:03.253Z,37.37
2018-12-10T22:44:29.930Z,36.27
2018-12-10T22:46:56.884Z,29.13
2018-12-10T22:49:23.537Z,31.33
2018-12-10T22:51:50.648Z,32.33
2018-12-10T22:54:17.280Z,31.27
2018-12-10T22:56:43.931Z,34.70
2018-12-10T22:59:10.983Z,26.93
2018-12-10T23:01:37.979Z,32.60
2018-12-10T23:04:04.626Z,34.60
2018-12-10T23:06:31.313Z,36.30
2018-12-10T23:08:58.324Z,36.73
2018-12-10T23:11:25.333Z,31.97
2018-12-10T23:13:52.529Z,36.07
2018-12-10T23:16:19.442Z,35.83
2018-12-10T23:18:47.291Z,32.00
2018-12-10T23:21:13.987Z,27.20
2018-12-10T23:23:40.621Z,27.10
2018-12-10T23:26:07.267Z,32.40
2018-12-10T23:28:33.944Z,33.10
2018-12-10T23:31:00.880Z,25.90
2018-12-10T23:33:28.742Z,38.37
2018-12-10T23:35:55.916Z,29.00
2018-12-10T23:38:22.840Z,32.10
2018-12-10T23:40:50.711Z,32.77
2018-12-10T23:43:24.021Z,27.83
2018-12-10T23:45:50.950Z,32.83
2018-12-10T23:48:18.824Z,26.63
2018-12-10T23:50:45.509Z,34.10
2018-12-10T23:53:13.326Z,25.93
2018-12-10T23:55:41.202Z,29.80
2018-12-10T23:58:10.061Z,32.17
